createdAt,value
2023-07-03T00:03:00.990Z,3.40
2023-07-03T00:06:04.150Z,3.97
2023-07-03T00:09:06.968Z,3.72
2023-07-03T00:12:12.083Z,3.30
2023-07-03T00:15:16.312Z,3.80
2023-07-03T00:18:19.385Z,4.30
2023-07-03T00:21:22.160Z,3.42
2023-07-03T00:24:25.210Z,3.75
2023-07-03T00:27:27.963Z,3.90
2023-07-03T00:30:31.338Z,3.50
2023-07-03T00:33:34.114Z,3.92
2023-07-03T00:36:37.166Z,4.37
2023-07-03T00:39:40.206Z,4.37
2023-07-03T00:42:43.380Z,3.70
2023-07-03T00:45:46.999Z,3.60
2023-07-03T00:48:51.748Z,3.85
2023-07-03T00:51:57.256Z,4.05
2023-07-03T00:55:00.350Z,3.67
2023-07-03T00:58:03.624Z,3.62
2023-07-03T01:01:35.815Z,4.17
2023-07-03T01:04:50.568Z,3.50
2023-07-03T01:07:54.959Z,3.67
2023-07-03T01:10:58.483Z,3.75
2023-07-03T01:14:03.272Z,3.70
2023-07-03T01:17:11.318Z,4.30
2023-07-03T01:20:19.355Z,4.15
2023-07-03T01:23:29.844Z,3.97
2023-07-03T01:26:34.374Z,3.65
2023-07-03T01:29:41.445Z,4.10
2023-07-03T01:32:47.989Z,3.97
2023-07-03T01:35:53.012Z,3.85
2023-07-03T01:38:56.995Z,4.03
2023-07-03T01:42:00.478Z,4.07
2023-07-03T01:45:04.277Z,3.85
2023-07-03T01:48:07.491Z,4.10
2023-07-03T01:51:14.149Z,3.90
2023-07-03T01:54:30.893Z,3.92
2023-07-03T01:57:47.950Z,5.10
2023-07-03T02:01:16.699Z,3.87
2023-07-03T02:04:47.133Z,4.30
2023-07-03T02:07:54.653Z,4.05
2023-07-03T02:10:59.174Z,4.53
2023-07-03T02:14:02.994Z,4.00
2023-07-03T02:17:07.767Z,4.97
2023-07-03T02:20:18.169Z,4.00
2023-07-03T02:23:22.983Z,4.18
2023-07-03T02:26:26.011Z,4.50
2023-07-03T02:29:29.072Z,4.10
2023-07-03T02:32:37.869Z,4.30
2023-07-03T02:35:42.786Z,4.63
2023-07-03T02:38:46.461Z,4.18
2023-07-03T02:41:49.436Z,4.60
2023-07-03T02:44:53.306Z,4.68
2023-07-03T02:47:56.148Z,4.10
2023-07-03T02:51:00.035Z,4.77
2023-07-03T02:54:05.872Z,4.72
2023-07-03T02:57:08.999Z,4.72
2023-07-03T03:00:12.692Z,5.28
2023-07-03T03:03:16.330Z,5.70
2023-07-03T03:06:19.270Z,5.20
2023-07-03T03:09:24.657Z,6.00
2023-07-03T03:12:28.229Z,5.80
2023-07-03T03:15:35.541Z,4.90
2023-07-03T03:18:38.309Z,6.60
2023-07-03T03:21:41.480Z,5.50
2023-07-03T03:24:44.998Z,5.65
2023-07-03T03:27:48.104Z,6.72
2023-07-03T03:30:51.098Z,6.68
2023-07-03T03:33:54.270Z,5.95
2023-07-03T03:36:57.735Z,5.80
2023-07-03T03:40:01.058Z,6.37
2023-07-03T03:43:04.164Z,5.90
2023-07-03T03:46:07.299Z,6.37
2023-07-03T03:49:11.973Z,5.22
2023-07-03T03:52:15.134Z,5.17
2023-07-03T03:55:18.124Z,6.00
2023-07-03T03:58:24.527Z,5.30
2023-07-03T04:01:27.646Z,5.75
2023-07-03T04:04:30.984Z,5.80
2023-07-03T04:07:33.849Z,5.70
2023-07-03T04:10:37.592Z,5.70
2023-07-03T04:13:40.434Z,6.25
2023-07-03T04:16:45.026Z,6.00
2023-07-03T04:19:47.811Z,6.07
2023-07-03T04:22:50.809Z,5.67
2023-07-03T04:25:54.366Z,5.30
2023-07-03T04:28:57.644Z,5.87
2023-07-03T04:32:00.589Z,5.90
2023-07-03T04:35:04.112Z,5.90
2023-07-03T04:38:07.264Z,5.70
2023-07-03T04:41:10.438Z,5.75
2023-07-03T04:44:13.758Z,5.85
2023-07-03T04:47:18.294Z,5.35
2023-07-03T04:50:26.552Z,5.40
2023-07-03T04:53:29.845Z,5.77
2023-07-03T04:56:35.114Z,5.80
2023-07-03T04:59:39.093Z,6.40
2023-07-03T05:02:43.087Z,5.65
2023-07-03T05:05:46.249Z,5.45
2023-07-03T05:08:49.117Z,5.83
2023-07-03T05:11:53.397Z,5.87
2023-07-03T05:14:58.330Z,6.18
2023-07-03T05:18:01.685Z,6.18
2023-07-03T05:21:07.501Z,5.97
2023-07-03T05:24:10.691Z,5.83
2023-07-03T05:27:13.404Z,6.32
2023-07-03T05:30:16.702Z,5.97
2023-07-03T05:33:19.475Z,5.90
2023-07-03T05:36:22.794Z,5.60
2023-07-03T05:39:26.290Z,5.90
2023-07-03T05:42:29.427Z,6.22
2023-07-03T05:45:32.164Z,5.90
2023-07-03T05:48:36.723Z,6.50
2023-07-03T05:51:39.613Z,6.03
2023-07-03T05:54:42.645Z,6.30
2023-07-03T05:57:45.616Z,6.87
2023-07-03T06:00:49.808Z,6.57
2023-07-03T06:03:53.061Z,6.22
2023-07-03T06:06:57.186Z,6.70
2023-07-03T06:10:00.394Z,6.70
2023-07-03T06:13:03.471Z,6.57
2023-07-03T06:16:06.758Z,6.25
2023-07-03T06:19:10.549Z,6.12
2023-07-03T06:22:13.575Z,6.70
2023-07-03T06:25:16.657Z,6.23
2023-07-03T06:28:20.278Z,6.70
2023-07-03T06:31:23.640Z,6.20
2023-07-03T06:34:27.602Z,6.60
2023-07-03T06:37:30.327Z,6.50
2023-07-03T06:40:33.606Z,6.17
2023-07-03T06:43:36.963Z,6.57
2023-07-03T06:46:40.625Z,6.15
2023-07-03T06:49:43.629Z,7.07
2023-07-03T06:52:48.713Z,6.43
2023-07-03T06:55:59.070Z,6.30
2023-07-03T06:59:02.461Z,6.62
2023-07-03T07:02:08.655Z,6.35
2023-07-03T07:05:12.592Z,6.10
2023-07-03T07:08:18.064Z,6.10
2023-07-03T07:11:39.495Z,5.70
2023-07-03T07:14:42.255Z,6.05
2023-07-03T07:17:51.955Z,6.10
2023-07-03T07:20:56.207Z,5.55
2023-07-03T07:24:12.712Z,5.70
2023-07-03T07:27:15.641Z,5.80
2023-07-03T07:30:18.912Z,5.80
2023-07-03T07:33:23.960Z,5.72
2023-07-03T07:36:27.918Z,5.70
2023-07-03T07:39:32.013Z,5.68
2023-07-03T07:42:35.773Z,5.63
2023-07-03T07:45:38.890Z,5.93
2023-07-03T07:48:42.305Z,5.57
2023-07-03T07:51:45.065Z,5.43
2023-07-03T07:54:48.611Z,5.12
2023-07-03T07:57:51.673Z,5.20
2023-07-03T08:00:56.131Z,4.95
2023-07-03T08:03:59.235Z,5.47
2023-07-03T08:07:02.102Z,5.35
2023-07-03T08:10:06.004Z,5.43
2023-07-03T08:13:09.299Z,5.13
2023-07-03T08:16:13.050Z,4.45
2023-07-03T08:19:16.106Z,4.82
2023-07-03T08:22:19.393Z,3.40
2023-07-03T08:25:22.845Z,3.92
2023-07-03T08:28:26.245Z,4.20
2023-07-03T08:31:29.492Z,3.95
2023-07-03T08:34:32.831Z,4.25
2023-07-03T08:37:35.681Z,4.15
2023-07-03T08:40:39.050Z,4.20
2023-07-03T08:43:48.592Z,3.53
2023-07-03T08:47:06.515Z,3.90
2023-07-03T08:50:28.122Z,3.78
2023-07-03T08:53:41.809Z,3.62
2023-07-03T08:56:44.755Z,3.22
2023-07-03T08:59:49.367Z,3.53
2023-07-03T09:03:48.412Z,3.30
2023-07-03T09:07:00.777Z,3.92
2023-07-03T09:10:13.148Z,4.50
2023-07-03T09:13:30.791Z,4.62
2023-07-03T09:16:34.054Z,4.43
2023-07-03T09:19:39.594Z,4.90
2023-07-03T09:22:50.754Z,4.93
2023-07-03T09:26:05.177Z,4.68
2023-07-03T09:29:08.542Z,5.40
2023-07-03T09:32:25.767Z,5.60
2023-07-03T09:35:42.368Z,5.93
2023-07-03T09:38:45.474Z,5.25
2023-07-03T09:41:48.456Z,6.85
2023-07-03T09:44:52.091Z,5.90
2023-07-03T09:47:59.734Z,6.17
2023-07-03T09:51:08.760Z,6.22
2023-07-03T09:54:24.806Z,6.47
2023-07-03T09:57:28.923Z,6.57
2023-07-03T10:00:31.880Z,7.50
2023-07-03T10:03:36.920Z,7.47
2023-07-03T10:06:41.235Z,6.53
2023-07-03T10:13:05.863Z,7.03
2023-07-03T10:16:10.485Z,7.20
2023-07-03T10:19:15.133Z,7.60
2023-07-03T10:22:20.140Z,7.37
2023-07-03T10:25:30.725Z,7.85
2023-07-03T10:28:40.086Z,7.50
2023-07-03T10:31:51.138Z,7.60
2023-07-03T10:35:11.065Z,7.60
2023-07-03T10:38:56.529Z,7.00
2023-07-03T10:42:05.437Z,7.85
2023-07-03T10:45:15.671Z,8.00
2023-07-03T10:48:28.066Z,7.80
2023-07-03T10:51:54.465Z,7.57
2023-07-03T10:55:10.029Z,7.53
2023-07-03T10:58:32.714Z,7.90
2023-07-03T11:01:51.903Z,7.80
2023-07-03T11:05:21.504Z,7.57
2023-07-03T11:09:04.898Z,7.00
2023-07-03T11:12:15.370Z,7.20
2023-07-03T11:15:35.228Z,7.57
2023-07-03T11:25:33.374Z,6.97
2023-07-03T11:28:39.331Z,6.68
2023-07-03T11:31:44.717Z,7.55
2023-07-03T11:44:19.218Z,7.35
2023-07-03T11:47:29.415Z,7.57
2023-07-03T11:50:35.411Z,7.00
2023-07-03T11:53:49.082Z,7.37
2023-07-03T11:56:57.575Z,7.23
2023-07-03T12:00:24.161Z,7.70
2023-07-03T12:04:04.222Z,7.55
2023-07-03T12:07:07.371Z,7.00
2023-07-03T12:10:30.814Z,7.10
2023-07-03T12:13:43.008Z,6.97
2023-07-03T12:16:49.125Z,7.03
2023-07-03T12:19:56.594Z,7.40
2023-07-03T12:23:00.873Z,7.50
2023-07-03T12:26:17.012Z,7.12
2023-07-03T12:29:23.249Z,6.80
2023-07-03T12:32:35.824Z,7.12
2023-07-03T12:35:44.458Z,7.07
2023-07-03T12:38:47.598Z,6.90
2023-07-03T12:41:50.891Z,7.40
2023-07-03T12:44:54.150Z,6.70
2023-07-03T12:48:04.270Z,6.90
2023-07-03T12:51:07.842Z,7.30
2023-07-03T12:54:13.693Z,7.25
2023-07-03T12:57:16.833Z,7.75
2023-07-03T13:00:26.572Z,7.23
2023-07-03T13:03:29.629Z,7.70
2023-07-03T13:06:34.724Z,6.95
2023-07-03T13:09:44.246Z,7.25
2023-07-03T13:13:07.459Z,6.97
2023-07-03T13:16:16.215Z,6.50
2023-07-03T13:19:49.774Z,6.90
2023-07-03T13:22:56.393Z,6.80
2023-07-03T13:26:01.558Z,6.85
2023-07-03T13:29:07.030Z,6.93
2023-07-03T13:32:18.852Z,6.73
2023-07-03T13:35:31.287Z,7.07
2023-07-03T13:38:34.376Z,6.72
2023-07-03T13:41:39.133Z,7.05
2023-07-03T13:44:42.191Z,6.80
2023-07-03T13:47:45.164Z,7.07
2023-07-03T13:50:50.895Z,6.78
2023-07-03T13:54:03.188Z,8.10
2023-07-03T13:57:14.127Z,6.95
2023-07-03T14:00:17.973Z,7.28
2023-07-03T14:03:21.888Z,7.17
2023-07-03T14:06:25.349Z,7.18
2023-07-03T14:09:28.828Z,6.43
2023-07-03T14:12:31.552Z,6.70
2023-07-03T14:15:36.981Z,6.70
2023-07-03T14:18:40.273Z,7.10
2023-07-03T14:21:44.104Z,6.80
2023-07-03T14:24:46.906Z,6.60
2023-07-03T14:27:50.873Z,6.62
2023-07-03T14:30:54.315Z,7.18
2023-07-03T14:33:57.514Z,6.60
2023-07-03T14:37:04.656Z,5.85
2023-07-03T14:40:08.458Z,7.10
2023-07-03T14:43:11.513Z,6.62
2023-07-03T14:46:14.717Z,6.05
2023-07-03T14:49:17.610Z,7.00
2023-07-03T14:52:21.358Z,6.80
2023-07-03T14:55:24.148Z,6.62
2023-07-03T14:58:27.486Z,6.78
2023-07-03T15:01:30.483Z,6.30
2023-07-03T15:04:34.155Z,7.00
2023-07-03T15:07:37.388Z,6.65
2023-07-03T15:10:40.528Z,7.37
2023-07-03T15:13:43.751Z,6.25
2023-07-03T15:16:47.241Z,6.57
2023-07-03T15:19:50.092Z,6.33
2023-07-03T15:22:54.042Z,7.30
2023-07-03T15:26:07.319Z,6.97
2023-07-03T15:29:10.358Z,7.18
2023-07-03T15:32:13.686Z,6.97
2023-07-03T15:35:16.880Z,8.10
2023-07-03T15:38:20.033Z,6.60
2023-07-03T15:41:23.037Z,6.57
2023-07-03T15:44:25.786Z,6.70
2023-07-03T15:47:29.096Z,6.87
2023-07-03T15:50:31.902Z,7.07
2023-07-03T15:53:36.140Z,6.25
2023-07-03T15:56:39.530Z,6.90
2023-07-03T15:59:43.746Z,6.05
2023-07-03T16:02:46.941Z,6.60
2023-07-03T16:06:04.908Z,6.77
2023-07-03T16:09:08.188Z,6.90
2023-07-03T16:12:11.233Z,7.03
2023-07-03T16:15:14.127Z,6.43
2023-07-03T16:18:17.226Z,6.53
2023-07-03T16:21:22.578Z,6.50
2023-07-03T16:24:26.820Z,6.40
2023-07-03T16:27:29.572Z,6.40
2023-07-03T16:30:32.803Z,7.07
2023-07-03T16:33:38.930Z,6.32
2023-07-03T16:36:42.142Z,6.83
2023-07-03T16:39:45.371Z,6.60
2023-07-03T16:42:48.762Z,6.55
2023-07-03T16:45:54.202Z,6.80
2023-07-03T16:48:59.381Z,6.60
2023-07-03T16:52:02.509Z,6.67
2023-07-03T16:55:06.085Z,6.50
2023-07-03T16:58:09.426Z,6.62
2023-07-03T17:01:16.529Z,6.15
2023-07-03T17:04:19.582Z,6.18
2023-07-03T17:07:23.923Z,6.23
2023-07-03T17:10:27.339Z,6.65
2023-07-03T17:13:32.183Z,6.50
2023-07-03T17:16:36.519Z,6.68
2023-07-03T17:19:39.707Z,6.70
2023-07-03T17:22:42.842Z,5.97
2023-07-03T17:25:48.861Z,6.68
2023-07-03T17:28:52.375Z,6.55
2023-07-03T17:31:56.268Z,6.95
2023-07-03T17:34:59.959Z,6.20
2023-07-03T17:38:04.504Z,6.60
2023-07-03T17:41:08.567Z,6.30
2023-07-03T17:44:13.459Z,6.15
2023-07-03T17:47:17.215Z,7.05
2023-07-03T17:50:20.649Z,7.07
2023-07-03T17:53:24.798Z,6.70
2023-07-03T17:56:29.442Z,6.70
2023-07-03T17:59:32.908Z,6.72
2023-07-03T18:02:36.484Z,6.85
2023-07-03T18:05:41.233Z,6.50
2023-07-03T18:08:44.867Z,6.60
2023-07-03T18:11:49.631Z,6.95
2023-07-03T18:14:53.984Z,6.45
2023-07-03T18:17:58.606Z,7.22
2023-07-03T18:21:02.151Z,6.65
2023-07-03T18:24:06.854Z,7.30
2023-07-03T18:27:10.709Z,6.55
2023-07-03T18:30:15.966Z,6.80
2023-07-03T18:33:19.775Z,6.57
2023-07-03T18:36:24.712Z,6.50
2023-07-03T18:39:28.447Z,6.27
2023-07-03T18:42:32.656Z,7.03
2023-07-03T18:45:36.134Z,7.07
2023-07-03T18:48:40.676Z,6.40
2023-07-03T18:51:43.808Z,6.97
2023-07-03T18:54:47.053Z,6.93
2023-07-03T18:57:50.600Z,6.85
2023-07-03T19:00:53.659Z,7.32
2023-07-03T19:03:58.616Z,7.45
2023-07-03T19:07:02.524Z,6.97
2023-07-03T19:10:17.544Z,7.47
2023-07-03T19:13:23.031Z,7.05
2023-07-03T19:16:26.205Z,7.47
2023-07-03T19:19:30.059Z,6.97
2023-07-03T19:22:34.120Z,6.90
2023-07-03T19:25:38.243Z,6.80
2023-07-03T19:28:45.442Z,6.82
2023-07-03T19:31:52.008Z,6.90
2023-07-03T19:34:55.019Z,6.75
2023-07-03T19:38:00.662Z,7.45
2023-07-03T19:41:05.433Z,7.17
2023-07-03T19:44:10.209Z,7.32
2023-07-03T19:47:13.935Z,7.22
2023-07-03T19:50:18.757Z,7.28
2023-07-03T19:53:22.282Z,7.37
2023-07-03T19:56:26.366Z,7.43
2023-07-03T19:59:30.056Z,6.68
2023-07-03T20:02:35.858Z,6.68
2023-07-03T20:05:43.088Z,7.70
2023-07-03T20:08:50.651Z,7.22
2023-07-03T20:11:55.233Z,7.83
2023-07-03T20:14:59.494Z,7.87
2023-07-03T20:18:03.965Z,7.72
2023-07-03T20:21:11.970Z,11.65
2023-07-03T20:24:16.798Z,7.65
2023-07-03T20:27:20.009Z,7.70
2023-07-03T20:30:23.928Z,7.87
2023-07-03T20:33:27.029Z,7.62
2023-07-03T20:36:31.160Z,7.80
2023-07-03T20:39:36.092Z,7.45
2023-07-03T20:42:39.445Z,8.07
2023-07-03T20:45:43.068Z,7.93
2023-07-03T20:48:55.561Z,7.62
2023-07-03T20:52:00.485Z,7.30
2023-07-03T20:55:13.504Z,8.07
2023-07-03T20:58:16.494Z,8.13
2023-07-03T21:01:24.112Z,8.23
2023-07-03T21:04:26.949Z,9.68
2023-07-03T21:07:30.326Z,7.72
2023-07-03T21:10:33.191Z,7.50
2023-07-03T21:13:38.909Z,7.97
2023-07-03T21:16:42.443Z,7.68
2023-07-03T21:19:45.672Z,8.00
2023-07-03T21:22:48.893Z,7.68
2023-07-03T21:25:52.336Z,8.02
2023-07-03T21:28:55.815Z,7.50
2023-07-03T21:31:59.119Z,7.40
2023-07-03T21:35:02.161Z,7.12
2023-07-03T21:38:05.332Z,7.35
2023-07-03T21:41:10.161Z,7.47
2023-07-03T21:44:16.923Z,6.83
2023-07-03T21:47:19.878Z,7.10
2023-07-03T21:50:23.723Z,6.95
2023-07-03T21:53:27.524Z,7.15
2023-07-03T21:56:32.028Z,7.25
2023-07-03T21:59:34.879Z,6.97
2023-07-03T22:02:38.145Z,6.65
2023-07-03T22:05:41.337Z,7.12
2023-07-03T22:08:44.193Z,7.28
2023-07-03T22:11:48.336Z,7.40
2023-07-03T22:14:51.399Z,7.27
2023-07-03T22:17:54.597Z,7.10
2023-07-03T22:20:57.368Z,7.93
2023-07-03T22:24:00.945Z,7.25
2023-07-03T22:27:05.441Z,7.30
2023-07-03T22:30:09.233Z,7.40
2023-07-03T22:33:11.943Z,7.32
2023-07-03T22:36:15.437Z,6.80
2023-07-03T22:39:18.420Z,7.15
2023-07-03T22:42:21.641Z,7.00
2023-07-03T22:45:24.615Z,6.50
2023-07-03T22:48:27.747Z,7.22
2023-07-03T22:51:32.253Z,8.30
2023-07-03T22:54:35.710Z,6.97
2023-07-03T22:57:38.569Z,6.62
2023-07-03T23:00:41.723Z,7.20
2023-07-03T23:03:44.769Z,7.45
2023-07-03T23:06:48.576Z,7.20
2023-07-03T23:09:51.829Z,6.80
2023-07-03T23:12:54.927Z,6.53
2023-07-03T23:16:05.915Z,7.20
2023-07-03T23:19:09.767Z,7.93
2023-07-03T23:22:12.550Z,7.82
2023-07-03T23:25:15.747Z,7.03
2023-07-03T23:28:18.784Z,7.35
2023-07-03T23:31:21.940Z,7.27
2023-07-03T23:34:24.954Z,6.60
2023-07-03T23:37:28.026Z,6.53
2023-07-03T23:40:32.210Z,6.18
2023-07-03T23:43:36.549Z,6.75
2023-07-03T23:46:39.443Z,6.87
2023-07-03T23:49:43.122Z,6.40
2023-07-03T23:52:47.399Z,7.18
2023-07-03T23:55:51.845Z,6.60
2023-07-03T23:58:54.647Z,7.10
